Time;durP1;ratioP1;P1;durP2;ratioP2;P2;SDS_P1;SDS_P2;PMS_P1;PMS_P2;Temp;Humidity;BMP_temperature;BMP_pressure;BME280_temperature;BME280_humidity;BME280_pressure;Samples;Min_cycle;Max_cycle;Signal;HPM_P1;HPM_P2
2023/11/30 00:00:01;;;;;;;;;;;-10.10;99.90;;;;;;5035329;28;19932;-65
2023/11/30 00:02:32;;;;;;;;;;;-10.00;99.90;;;;;;5030199;28;19925;-66
2023/11/30 00:04:59;;;;;;;;;;;-10.00;99.90;;;;;;5033825;28;19936;-65
2023/11/30 00:07:26;;;;;;;;;;;-10.00;99.90;;;;;;5036358;28;20035;-62
2023/11/30 00:09:52;;;;;;;;;;;-10.00;99.90;;;;;;5032159;28;19933;-61
2023/11/30 00:12:19;;;;;;;;;;;-10.00;99.90;;;;;;5034227;28;20326;-65
2023/11/30 00:14:46;;;;;;;;;;;-9.90;99.90;;;;;;5034847;28;20516;-63
2023/11/30 00:17:13;;;;;;;;;;;-9.90;99.90;;;;;;5030378;28;19925;-61
2023/11/30 00:19:40;;;;;;;;;;;-9.90;99.90;;;;;;5035173;28;20359;-62
2023/11/30 00:22:06;;;;;;;;;;;-9.80;99.90;;;;;;5029295;28;20087;-61
2023/11/30 00:24:33;;;;;;;;;;;-9.70;99.90;;;;;;5027113;28;19961;-64
2023/11/30 00:27:00;;;;;;;;;;;-9.60;99.90;;;;;;5037745;28;19925;-63
2023/11/30 00:29:27;;;;;;;;;;;-9.50;99.90;;;;;;5032028;28;19936;-62
2023/11/30 00:31:53;;;;;;;;;;;-9.50;99.90;;;;;;5037553;28;19924;-62
2023/11/30 00:34:20;;;;;;;;;;;-9.40;99.90;;;;;;5035050;28;19979;-62
2023/11/30 00:36:47;;;;;;;;;;;-9.30;99.90;;;;;;5052517;28;19928;-62
2023/11/30 00:39:14;;;;;;;;;;;-9.30;99.90;;;;;;5035040;28;19925;-61
2023/11/30 00:41:41;;;;;;;;;;;-9.30;99.90;;;;;;5031328;28;19929;-64
2023/11/30 00:44:09;;;;;;;;;;;-9.30;99.90;;;;;;5029687;28;19975;-62
2023/11/30 00:46:36;;;;;;;;;;;-9.30;99.90;;;;;;5034233;28;19939;-71
2023/11/30 00:49:03;;;;;;;;;;;-9.20;99.90;;;;;;5034081;28;19933;-63
2023/11/30 00:51:30;;;;;;;;;;;-9.20;99.90;;;;;;5039267;28;19932;-62
2023/11/30 00:53:58;;;;;;;;;;;-9.10;99.90;;;;;;5034191;28;20524;-61
2023/11/30 00:56:25;;;;;;;;;;;-9.10;99.90;;;;;;5041765;28;19924;-61
2023/11/30 00:58:51;;;;;;;;;;;-9.10;99.90;;;;;;5031065;28;19931;-61
2023/11/30 01:01:18;;;;;;;;;;;-9.00;99.90;;;;;;5029913;28;20010;-62
2023/11/30 01:03:45;;;;;;;;;;;-9.00;99.90;;;;;;5034023;28;19924;-63
2023/11/30 01:06:12;;;;;;;;;;;-8.90;99.90;;;;;;5033039;28;19929;-64
2023/11/30 01:08:39;;;;;;;;;;;-8.90;99.90;;;;;;5031219;28;19929;-62
2023/11/30 01:11:06;;;;;;;;;;;-8.80;99.90;;;;;;5037834;28;19960;-62
2023/11/30 01:13:33;;;;;;;;;;;-8.70;99.90;;;;;;5046017;28;19980;-62
2023/11/30 01:16:00;;;;;;;;;;;-8.70;99.90;;;;;;5034939;28;19940;-62
2023/11/30 01:18:26;;;;;;;;;;;-8.60;99.90;;;;;;5034113;28;20448;-68
2023/11/30 01:20:54;;;;;;;;;;;-8.50;99.90;;;;;;5043884;28;19933;-65
2023/11/30 01:23:21;;;;;;;;;;;-8.40;99.90;;;;;;5032776;28;19978;-65
2023/11/30 01:25:48;;;;;;;;;;;-8.40;99.90;;;;;;5027064;28;19925;-62
2023/11/30 01:28:15;;;;;;;;;;;-8.30;99.90;;;;;;5025096;28;19933;-63
2023/11/30 01:30:42;;;;;;;;;;;-8.20;99.90;;;;;;5028225;28;19929;-62
2023/11/30 01:33:08;;;;;;;;;;;-8.10;99.90;;;;;;5033514;28;19929;-63
2023/11/30 01:35:35;;;;;;;;;;;-8.00;99.90;;;;;;5028148;28;19980;-63
2023/11/30 01:38:03;;;;;;;;;;;-7.90;99.90;;;;;;5020506;28;19933;-63
2023/11/30 01:40:30;;;;;;;;;;;-7.90;99.90;;;;;;5016124;28;19925;-62
2023/11/30 01:42:57;;;;;;;;;;;-7.80;99.90;;;;;;5032101;28;19936;-63
2023/11/30 01:45:24;;;;;;;;;;;-7.70;99.90;;;;;;5029743;28;19929;-64
2023/11/30 01:47:52;;;;;;;;;;;-7.70;99.90;;;;;;5023080;28;19925;-61
2023/11/30 01:50:20;;;;;;;;;;;-7.60;99.90;;;;;;5030446;28;20051;-63
2023/11/30 01:52:47;;;;;;;;;;;-7.50;99.90;;;;;;5033995;28;19933;-63
2023/11/30 01:55:14;;;;;;;;;;;-7.40;99.90;;;;;;5026259;28;20002;-70
2023/11/30 01:57:41;;;;;;;;;;;-7.40;99.90;;;;;;5035432;28;20022;-65
2023/11/30 02:00:09;;;;;;;;;;;-7.30;99.90;;;;;;5034019;28;20014;-63
2023/11/30 02:02:38;;;;;;;;;;;-7.20;99.90;;;;;;5032996;28;19933;-63
2023/11/30 02:05:06;;;;;;;;;;;-7.10;99.90;;;;;;5030708;28;19925;-61
2023/11/30 02:07:33;;;;;;;;;;;-7.00;99.90;;;;;;5031288;28;20398;-63
2023/11/30 02:09:59;;;;;;;;;;;-6.80;99.90;;;;;;5026777;28;19932;-63
2023/11/30 02:12:26;;;;;;;;;;;-6.70;99.90;;;;;;5029861;28;19932;-62
2023/11/30 02:14:57;;;;;;;;;;;-6.60;99.90;;;;;;5029232;28;19928;-63
2023/11/30 02:17:24;;;;;;;;;;;-6.70;99.90;;;;;;5032813;28;19925;-61
2023/11/30 02:19:50;;;;;;;;;;;-6.70;99.90;;;;;;5031974;28;19931;-63
2023/11/30 02:22:17;;;;;;;;;;;-6.60;99.90;;;;;;5030783;28;19929;-66
2023/11/30 02:24:45;;;;;;;;;;;-6.70;99.90;;;;;;5045487;28;19925;-62
2023/11/30 02:27:13;;;;;;;;;;;-6.70;99.90;;;;;;5029767;28;20070;-63
2023/11/30 02:29:40;;;;;;;;;;;-6.70;99.90;;;;;;5026584;28;20406;-61
2023/11/30 02:32:07;;;;;;;;;;;-6.70;99.90;;;;;;5030239;28;19960;-62
2023/11/30 02:34:33;;;;;;;;;;;-6.70;99.90;;;;;;5031145;28;19929;-64
2023/11/30 02:37:00;;;;;;;;;;;-6.70;99.90;;;;;;5025863;28;19957;-62
2023/11/30 02:39:28;;;;;;;;;;;-6.70;99.90;;;;;;5032133;28;19932;-61
2023/11/30 02:41:54;;;;;;;;;;;-6.60;99.90;;;;;;5035770;28;20383;-64
2023/11/30 02:44:21;;;;;;;;;;;-6.60;99.90;;;;;;5028655;28;19939;-64
2023/11/30 02:46:48;;;;;;;;;;;-6.50;99.90;;;;;;5030458;28;19939;-63
2023/11/30 02:49:16;;;;;;;;;;;-6.50;99.90;;;;;;5030350;28;19979;-62
2023/11/30 02:51:43;;;;;;;;;;;-6.50;99.90;;;;;;5035845;28;19929;-65
2023/11/30 02:54:10;;;;;;;;;;;-6.50;99.90;;;;;;5037327;28;19929;-62
2023/11/30 02:56:40;;;;;;;;;;;-6.50;99.90;;;;;;5033320;28;19970;-62
2023/11/30 02:59:07;;;;;;;;;;;-6.40;99.90;;;;;;5023506;28;19976;-64
2023/11/30 03:01:33;;;;;;;;;;;-6.40;99.90;;;;;;5026374;28;20031;-62
2023/11/30 03:04:00;;;;;;;;;;;-6.40;99.90;;;;;;5026443;28;19928;-62
2023/11/30 03:06:27;;;;;;;;;;;-6.40;99.90;;;;;;5035966;28;20301;-62
2023/11/30 03:08:54;;;;;;;;;;;-6.40;99.90;;;;;;5038815;28;19929;-63
2023/11/30 03:11:21;;;;;;;;;;;-6.30;99.90;;;;;;5035556;28;20397;-67
2023/11/30 03:13:48;;;;;;;;;;;-6.40;99.90;;;;;;5037104;28;19928;-66
2023/11/30 03:16:21;;;;;;;;;;;-6.30;99.90;;;;;;5034746;28;19929;-61
2023/11/30 03:18:48;;;;;;;;;;;-6.30;99.90;;;;;;5035710;28;19925;-63
2023/11/30 03:21:22;;;;;;;;;;;-6.30;99.90;;;;;;5048390;28;19939;-63
2023/11/30 03:23:51;;;;;;;;;;;-6.30;99.90;;;;;;5018360;28;19925;-63
2023/11/30 03:26:18;;;;;;;;;;;-6.30;99.90;;;;;;5036020;28;19929;-65
2023/11/30 03:28:45;;;;;;;;;;;-6.30;99.90;;;;;;5036344;28;19978;-61
2023/11/30 03:31:12;;;;;;;;;;;-6.30;99.90;;;;;;5030710;28;20040;-61
2023/11/30 03:33:38;;;;;;;;;;;-6.30;99.90;;;;;;5031353;28;19925;-63
2023/11/30 03:36:06;;;;;;;;;;;-6.20;99.90;;;;;;5021638;28;19933;-61
2023/11/30 03:38:33;;;;;;;;;;;-6.20;99.90;;;;;;5029951;28;19925;-61
2023/11/30 03:41:00;;;;;;;;;;;-6.10;99.90;;;;;;5029863;28;19925;-69
2023/11/30 03:43:27;;;;;;;;;;;-6.10;99.90;;;;;;5034766;28;19944;-62
2023/11/30 03:45:54;;;;;;;;;;;-6.10;99.90;;;;;;5035414;28;19933;-62
2023/11/30 03:48:21;;;;;;;;;;;-6.10;99.90;;;;;;5032775;28;19948;-67
2023/11/30 03:50:48;;;;;;;;;;;-6.00;99.90;;;;;;5028199;28;19931;-62
2023/11/30 03:53:14;;;;;;;;;;;-5.90;99.90;;;;;;5034437;28;19929;-62
2023/11/30 03:55:41;;;;;;;;;;;-5.90;99.90;;;;;;5027435;28;19925;-64
2023/11/30 03:58:08;;;;;;;;;;;-5.80;99.90;;;;;;5025385;28;19937;-64
2023/11/30 04:00:35;;;;;;;;;;;-5.80;99.90;;;;;;5037482;28;19955;-61
2023/11/30 04:03:02;;;;;;;;;;;-5.70;99.90;;;;;;5030530;28;19925;-66
2023/11/30 04:05:29;;;;;;;;;;;-5.70;99.90;;;;;;5036523;28;20636;-64
2023/11/30 04:07:55;;;;;;;;;;;-5.60;99.90;;;;;;5028258;28;20448;-66
2023/11/30 04:10:22;;;;;;;;;;;-5.50;99.90;;;;;;5032109;28;20295;-63
2023/11/30 04:12:49;;;;;;;;;;;-5.40;99.90;;;;;;5034402;28;20665;-65
2023/11/30 04:15:16;;;;;;;;;;;-5.20;99.90;;;;;;5033287;28;20032;-62
2023/11/30 04:17:43;;;;;;;;;;;-5.00;99.90;;;;;;5027891;28;19928;-65
2023/11/30 04:20:10;;;;;;;;;;;-4.80;99.90;;;;;;5049277;28;19935;-62
2023/11/30 04:22:37;;;;;;;;;;;-4.70;99.90;;;;;;5029831;28;19929;-62
2023/11/30 04:25:05;;;;;;;;;;;-4.50;99.90;;;;;;5024479;28;20441;-63
2023/11/30 04:27:31;;;;;;;;;;;-4.40;99.90;;;;;;5033075;28;20018;-63
2023/11/30 04:29:58;;;;;;;;;;;-4.30;99.90;;;;;;5023597;28;20299;-66
2023/11/30 04:32:25;;;;;;;;;;;-4.20;99.90;;;;;;5032987;28;19933;-63
2023/11/30 04:34:52;;;;;;;;;;;-4.20;99.90;;;;;;5026437;28;19937;-65
2023/11/30 04:37:19;;;;;;;;;;;-4.10;99.90;;;;;;5031349;28;19933;-62
2023/11/30 04:39:46;;;;;;;;;;;-4.10;99.90;;;;;;5031583;28;20338;-64
2023/11/30 04:42:12;;;;;;;;;;;-4.00;99.90;;;;;;5036832;28;19971;-67
2023/11/30 04:44:39;;;;;;;;;;;-4.00;99.90;;;;;;5034529;28;19929;-61
2023/11/30 04:47:06;;;;;;;;;;;-3.90;99.90;;;;;;5030789;28;20320;-61
2023/11/30 04:49:33;;;;;;;;;;;-3.90;99.90;;;;;;5032466;28;20514;-65
2023/11/30 04:52:00;;;;;;;;;;;-3.90;99.90;;;;;;5033002;28;20020;-61
2023/11/30 04:54:27;;;;;;;;;;;-3.90;99.90;;;;;;5024754;28;19930;-62
2023/11/30 04:56:54;;;;;;;;;;;-3.90;99.90;;;;;;5029188;28;19929;-63
2023/11/30 04:59:21;;;;;;;;;;;-3.80;99.90;;;;;;5029744;28;19933;-65
2023/11/30 05:01:47;;;;;;;;;;;-3.90;99.90;;;;;;5021929;28;19933;-63
2023/11/30 05:04:14;;;;;;;;;;;-3.90;99.90;;;;;;5038390;28;19983;-62
2023/11/30 05:06:41;;;;;;;;;;;-3.90;99.90;;;;;;5035495;28;20302;-62
2023/11/30 05:09:09;;;;;;;;;;;-4.00;99.90;;;;;;5029626;28;19929;-61
2023/11/30 05:11:36;;;;;;;;;;;-4.00;99.90;;;;;;5026865;28;20330;-61
2023/11/30 05:14:03;;;;;;;;;;;-4.00;99.90;;;;;;5028917;28;20325;-63
2023/11/30 05:16:29;;;;;;;;;;;-4.00;99.90;;;;;;5032223;28;19933;-61
2023/11/30 05:18:56;;;;;;;;;;;-4.00;99.90;;;;;;5032775;28;19936;-62
2023/11/30 05:21:23;;;;;;;;;;;-4.00;99.90;;;;;;5029590;28;20010;-63
2023/11/30 05:23:51;;;;;;;;;;;-4.00;99.90;;;;;;5028725;28;19960;-64
2023/11/30 05:26:17;;;;;;;;;;;-4.00;99.90;;;;;;5027815;28;20140;-62
2023/11/30 05:28:44;;;;;;;;;;;-4.10;99.90;;;;;;5032969;28;19994;-64
2023/11/30 05:31:11;;;;;;;;;;;-4.10;99.90;;;;;;5026575;28;19979;-62
2023/11/30 05:33:39;;;;;;;;;;;-4.10;99.90;;;;;;5031687;28;19929;-62
2023/11/30 05:36:06;;;;;;;;;;;-4.10;99.90;;;;;;5031967;28;19929;-64
2023/11/30 05:38:33;;;;;;;;;;;-4.10;99.90;;;;;;5028167;28;20531;-62
2023/11/30 05:40:59;;;;;;;;;;;-4.10;99.90;;;;;;5029952;28;19929;-63
2023/11/30 05:43:26;;;;;;;;;;;-4.00;99.90;;;;;;5032722;28;20558;-62
2023/11/30 05:45:53;;;;;;;;;;;-4.00;99.90;;;;;;5027981;28;19925;-65
2023/11/30 05:48:20;;;;;;;;;;;-4.00;99.90;;;;;;5029945;28;20689;-62
2023/11/30 05:50:47;;;;;;;;;;;-4.00;99.90;;;;;;5035183;28;19937;-63
2023/11/30 05:53:14;;;;;;;;;;;-4.00;99.90;;;;;;5034046;28;19964;-63
2023/11/30 05:55:41;;;;;;;;;;;-3.90;99.90;;;;;;5034855;28;19979;-64
2023/11/30 05:58:07;;;;;;;;;;;-4.00;99.90;;;;;;5026513;28;20322;-62
2023/11/30 06:00:34;;;;;;;;;;;-4.00;99.90;;;;;;5034456;28;19926;-65
2023/11/30 06:03:01;;;;;;;;;;;-4.00;99.90;;;;;;5037976;28;20241;-64
2023/11/30 06:05:30;;;;;;;;;;;-4.00;99.90;;;;;;5027680;28;20023;-63
2023/11/30 06:07:57;;;;;;;;;;;-3.90;99.90;;;;;;5030033;28;19929;-62
2023/11/30 06:10:24;;;;;;;;;;;-3.90;99.90;;;;;;5032689;28;20040;-69
2023/11/30 06:12:51;;;;;;;;;;;-3.90;99.90;;;;;;5033035;28;19929;-62
2023/11/30 06:15:18;;;;;;;;;;;-3.90;99.90;;;;;;5030942;28;19929;-63
2023/11/30 06:17:45;;;;;;;;;;;-3.90;99.90;;;;;;5029275;28;20599;-63
2023/11/30 06:20:12;;;;;;;;;;;-3.90;99.90;;;;;;5030937;28;19932;-62
2023/11/30 06:22:39;;;;;;;;;;;-3.90;99.90;;;;;;5029021;28;19933;-65
2023/11/30 06:25:07;;;;;;;;;;;-4.00;99.90;;;;;;5026441;28;19929;-62
2023/11/30 06:27:34;;;;;;;;;;;-4.00;99.90;;;;;;5027384;28;20274;-64
2023/11/30 06:30:01;;;;;;;;;;;-4.00;99.90;;;;;;5030736;28;19983;-64
2023/11/30 06:32:28;;;;;;;;;;;-4.00;99.90;;;;;;5024348;28;19940;-65
2023/11/30 06:34:55;;;;;;;;;;;-4.00;99.90;;;;;;5031744;28;19932;-64
2023/11/30 06:37:22;;;;;;;;;;;-4.00;99.90;;;;;;5043893;28;20434;-66
2023/11/30 06:39:49;;;;;;;;;;;-4.00;99.90;;;;;;5030071;28;19933;-63
2023/11/30 06:42:15;;;;;;;;;;;-4.00;99.90;;;;;;5025962;28;19933;-62
2023/11/30 06:44:43;;;;;;;;;;;-4.10;99.90;;;;;;5030416;28;19936;-63
2023/11/30 06:47:11;;;;;;;;;;;-4.10;99.90;;;;;;5028127;28;19924;-62
2023/11/30 06:49:38;;;;;;;;;;;-4.10;99.90;;;;;;5031329;28;19973;-62
2023/11/30 06:52:05;;;;;;;;;;;-4.10;99.90;;;;;;5029571;28;19932;-63
2023/11/30 06:54:32;;;;;;;;;;;-4.10;99.90;;;;;;5027213;28;20375;-64
2023/11/30 06:56:59;;;;;;;;;;;-4.00;99.90;;;;;;5030486;28;19936;-63
2023/11/30 06:59:26;;;;;;;;;;;-4.00;99.90;;;;;;5035781;28;19933;-64
2023/11/30 07:01:54;;;;;;;;;;;-4.00;99.90;;;;;;5027972;28;19973;-63
2023/11/30 07:04:21;;;;;;;;;;;-4.00;99.90;;;;;;5027683;28;19929;-64
2023/11/30 07:06:48;;;;;;;;;;;-4.00;99.90;;;;;;5029633;28;21221;-63
2023/11/30 07:09:15;;;;;;;;;;;-4.00;99.90;;;;;;5023941;28;20023;-63
2023/11/30 07:11:42;;;;;;;;;;;-4.00;99.90;;;;;;5027059;28;19926;-63
2023/11/30 07:14:09;;;;;;;;;;;-4.00;99.90;;;;;;5022205;28;20478;-64
2023/11/30 07:16:36;;;;;;;;;;;-4.00;99.90;;;;;;5027602;28;19925;-63
2023/11/30 07:19:03;;;;;;;;;;;-4.00;99.90;;;;;;5027764;28;19964;-62
2023/11/30 07:21:30;;;;;;;;;;;-4.00;99.90;;;;;;5027546;28;20282;-62
2023/11/30 07:23:56;;;;;;;;;;;-3.90;99.90;;;;;;5029800;28;19929;-63
2023/11/30 07:26:23;;;;;;;;;;;-3.90;99.90;;;;;;5027757;28;19925;-64
2023/11/30 07:28:50;;;;;;;;;;;-3.90;99.90;;;;;;5029138;28;20429;-62
2023/11/30 07:31:18;;;;;;;;;;;-4.00;99.90;;;;;;5030342;28;20023;-63
2023/11/30 07:33:45;;;;;;;;;;;-4.00;99.90;;;;;;5030097;28;20631;-61
2023/11/30 07:36:12;;;;;;;;;;;-4.00;99.90;;;;;;5034313;28;20261;-61
2023/11/30 07:38:40;;;;;;;;;;;-4.00;99.90;;;;;;5024574;28;20039;-64
2023/11/30 07:41:07;;;;;;;;;;;-4.10;99.90;;;;;;5030440;28;19925;-64
2023/11/30 07:43:34;;;;;;;;;;;-4.00;99.90;;;;;;5029895;28;19925;-61
2023/11/30 07:46:01;;;;;;;;;;;-4.00;99.90;;;;;;5032650;28;19937;-62
2023/11/30 07:48:28;;;;;;;;;;;-4.00;99.90;;;;;;5027034;28;19925;-61
2023/11/30 07:50:55;;;;;;;;;;;-4.00;99.90;;;;;;5033932;28;20406;-62
2023/11/30 07:53:23;;;;;;;;;;;-4.00;99.90;;;;;;5032514;28;20017;-68
2023/11/30 07:55:56;;;;;;;;;;;-4.00;99.90;;;;;;5034475;28;19944;-62
2023/11/30 07:58:24;;;;;;;;;;;-3.90;99.90;;;;;;5035081;28;19925;-65
2023/11/30 08:00:51;;;;;;;;;;;-3.90;99.90;;;;;;5031071;28;19925;-62
2023/11/30 08:03:18;;;;;;;;;;;-3.80;99.90;;;;;;5032597;28;19967;-64
2023/11/30 08:05:45;;;;;;;;;;;-3.80;99.90;;;;;;5036331;28;19926;-63
2023/11/30 08:08:12;;;;;;;;;;;-3.70;99.90;;;;;;5039654;28;19975;-63
2023/11/30 08:10:39;;;;;;;;;;;-3.70;99.90;;;;;;5033279;28;19960;-64
2023/11/30 08:13:06;;;;;;;;;;;-3.60;99.90;;;;;;5036102;28;20002;-63
2023/11/30 08:15:33;;;;;;;;;;;-3.60;99.90;;;;;;5030478;28;20295;-64
2023/11/30 08:18:00;;;;;;;;;;;-3.50;99.90;;;;;;5033733;28;20011;-63
2023/11/30 08:20:27;;;;;;;;;;;-3.50;99.90;;;;;;5032863;28;19925;-64
2023/11/30 08:22:54;;;;;;;;;;;-3.40;99.90;;;;;;5033762;28;20030;-63
2023/11/30 08:25:21;;;;;;;;;;;-3.30;99.90;;;;;;5033137;28;19925;-64
2023/11/30 08:27:50;;;;;;;;;;;-3.20;99.90;;;;;;5033958;28;20008;-62
2023/11/30 08:30:20;;;;;;;;;;;-3.10;99.90;;;;;;5031166;28;19932;-65
2023/11/30 08:32:47;;;;;;;;;;;-3.00;99.90;;;;;;5035497;28;20295;-62
2023/11/30 08:35:14;;;;;;;;;;;-2.80;99.90;;;;;;5029859;28;19929;-62
2023/11/30 08:37:41;;;;;;;;;;;-2.60;99.90;;;;;;5036680;28;19924;-62
2023/11/30 08:40:10;;;;;;;;;;;-2.50;99.90;;;;;;5037130;28;19978;-62
2023/11/30 08:42:37;;;;;;;;;;;-2.30;99.90;;;;;;5036775;28;19960;-61
2023/11/30 08:45:05;;;;;;;;;;;-2.30;99.90;;;;;;5035857;28;19987;-61
2023/11/30 08:47:31;;;;;;;;;;;-2.20;99.90;;;;;;5035822;28;19924;-63
2023/11/30 08:49:58;;;;;;;;;;;-2.10;99.90;;;;;;5031966;28;19925;-64
2023/11/30 08:52:25;;;;;;;;;;;-2.00;99.90;;;;;;5038326;28;19976;-65
2023/11/30 08:54:52;;;;;;;;;;;-2.00;99.90;;;;;;5029253;28;20537;-61
2023/11/30 08:57:19;;;;;;;;;;;-1.90;99.90;;;;;;5034423;28;19973;-67
2023/11/30 08:59:46;;;;;;;;;;;-1.90;99.90;;;;;;5032042;28;19979;-61
2023/11/30 09:02:13;;;;;;;;;;;-1.90;99.90;;;;;;5030058;28;19971;-63
2023/11/30 09:04:40;;;;;;;;;;;-1.80;99.90;;;;;;5038406;28;19933;-62
2023/11/30 09:07:07;;;;;;;;;;;-1.80;99.90;;;;;;5030936;28;19994;-62
2023/11/30 09:09:34;;;;;;;;;;;-1.80;99.90;;;;;;5033043;28;19929;-62
2023/11/30 09:12:02;;;;;;;;;;;-1.70;99.90;;;;;;5029589;28;19925;-67
2023/11/30 09:14:30;;;;;;;;;;;-1.70;99.90;;;;;;5028018;28;19932;-64
2023/11/30 09:16:59;;;;;;;;;;;-1.70;99.90;;;;;;5028022;28;19933;-61
2023/11/30 09:19:26;;;;;;;;;;;-1.60;99.90;;;;;;5035735;28;19972;-64
2023/11/30 09:21:53;;;;;;;;;;;-1.60;99.90;;;;;;5033259;28;20019;-63
2023/11/30 09:24:21;;;;;;;;;;;-1.50;99.90;;;;;;5031972;28;19937;-62
2023/11/30 09:26:50;;;;;;;;;;;-1.40;99.90;;;;;;5037083;28;20397;-62
2023/11/30 09:29:18;;;;;;;;;;;-1.40;99.90;;;;;;5031893;28;20390;-62
2023/11/30 09:31:45;;;;;;;;;;;-1.30;99.90;;;;;;5030427;28;19929;-64
2023/11/30 09:34:12;;;;;;;;;;;-1.20;99.90;;;;;;5029698;28;20019;-63
2023/11/30 09:36:39;;;;;;;;;;;-1.20;99.90;;;;;;5032483;28;19932;-65
2023/11/30 09:39:09;;;;;;;;;;;-1.10;99.90;;;;;;5031798;28;19925;-65
2023/11/30 09:41:38;;;;;;;;;;;-1.00;99.90;;;;;;5033910;28;19925;-63
2023/11/30 09:44:05;;;;;;;;;;;-1.00;99.90;;;;;;5031600;28;20025;-66
2023/11/30 09:46:32;;;;;;;;;;;-0.90;99.90;;;;;;5031848;28;19936;-62
2023/11/30 09:48:59;;;;;;;;;;;-0.90;99.90;;;;;;5032551;28;20265;-71
2023/11/30 09:51:28;;;;;;;;;;;-0.80;99.90;;;;;;5032161;28;20338;-64
2023/11/30 09:53:57;;;;;;;;;;;-0.80;99.90;;;;;;5034400;28;19925;-62
2023/11/30 09:56:27;;;;;;;;;;;-0.70;99.90;;;;;;5039514;28;19956;-69
2023/11/30 09:58:54;;;;;;;;;;;-0.70;99.90;;;;;;5030786;28;19936;-63
2023/11/30 10:01:24;;;;;;;;;;;-0.70;99.90;;;;;;5034399;28;19925;-63
2023/11/30 10:03:51;;;;;;;;;;;-0.70;99.90;;;;;;5034742;28;19925;-62
2023/11/30 10:06:18;;;;;;;;;;;-0.60;99.90;;;;;;5033179;28;19931;-63
2023/11/30 10:08:45;;;;;;;;;;;-0.60;99.90;;;;;;5029543;28;19975;-64
2023/11/30 10:11:12;;;;;;;;;;;-0.60;99.90;;;;;;5033373;28;20477;-62
2023/11/30 10:13:39;;;;;;;;;;;-0.50;99.90;;;;;;5028557;28;20003;-66
2023/11/30 10:16:06;;;;;;;;;;;-0.50;99.90;;;;;;5026920;28;20367;-62
2023/11/30 10:18:34;;;;;;;;;;;-0.40;99.90;;;;;;5033489;28;20563;-62
2023/11/30 10:21:01;;;;;;;;;;;-0.40;99.90;;;;;;5031979;28;19936;-67
2023/11/30 10:23:29;;;;;;;;;;;-0.30;99.90;;;;;;5030671;28;19929;-63
2023/11/30 10:25:57;;;;;;;;;;;-0.30;99.90;;;;;;5030967;28;20268;-63
2023/11/30 10:28:24;;;;;;;;;;;-0.20;99.90;;;;;;5034171;28;19978;-63
2023/11/30 10:30:53;;;;;;;;;;;-0.20;99.90;;;;;;5030632;28;19933;-63
2023/11/30 10:33:22;;;;;;;;;;;-0.10;99.90;;;;;;5030820;28;20695;-63
2023/11/30 10:35:51;;;;;;;;;;;-0.10;99.90;;;;;;5028254;28;20207;-65
2023/11/30 10:38:24;;;;;;;;;;;0.00;99.90;;;;;;5030247;28;20342;-67
2023/11/30 10:40:53;;;;;;;;;;;0.00;99.90;;;;;;5029545;28;19933;-63
2023/11/30 10:43:21;;;;;;;;;;;-0.10;99.90;;;;;;5029148;28;20302;-64
2023/11/30 10:45:50;;;;;;;;;;;0.00;99.90;;;;;;5029767;28;19932;-63
2023/11/30 10:48:17;;;;;;;;;;;0.00;99.90;;;;;;5028338;28;19929;-65
2023/11/30 10:50:46;;;;;;;;;;;0.00;99.90;;;;;;5032785;28;19929;-63
2023/11/30 10:53:19;;;;;;;;;;;0.10;99.90;;;;;;5028874;28;19968;-64
2023/11/30 10:55:46;;;;;;;;;;;0.10;99.90;;;;;;5028775;28;20330;-65
2023/11/30 10:58:12;;;;;;;;;;;0.20;99.90;;;;;;5031482;28;20016;-62
2023/11/30 11:00:42;;;;;;;;;;;0.20;99.90;;;;;;5023548;28;19972;-63
2023/11/30 11:03:09;;;;;;;;;;;0.20;99.90;;;;;;5027306;28;19925;-63
2023/11/30 11:05:42;;;;;;;;;;;0.30;99.90;;;;;;5023563;28;20443;-65
2023/11/30 11:08:09;;;;;;;;;;;0.30;99.90;;;;;;5032790;28;19926;-62
2023/11/30 11:10:38;;;;;;;;;;;0.30;99.90;;;;;;5031081;28;20484;-65
2023/11/30 11:13:05;;;;;;;;;;;0.30;99.90;;;;;;5032164;28;19933;-66
2023/11/30 11:15:33;;;;;;;;;;;0.30;99.90;;;;;;5032293;28;19971;-63
2023/11/30 11:18:03;;;;;;;;;;;0.30;99.90;;;;;;5034095;28;20558;-64
2023/11/30 11:20:32;;;;;;;;;;;0.30;99.90;;;;;;5035318;28;19929;-65
2023/11/30 11:23:02;;;;;;;;;;;0.30;99.90;;;;;;5028830;28;19928;-64
2023/11/30 11:25:28;;;;;;;;;;;0.30;99.90;;;;;;5029827;28;19929;-65
2023/11/30 11:27:55;;;;;;;;;;;0.30;99.90;;;;;;5035543;28;19932;-63
2023/11/30 11:30:26;;;;;;;;;;;0.30;99.90;;;;;;5039695;28;19983;-62
2023/11/30 11:32:58;;;;;;;;;;;0.30;99.90;;;;;;5034058;28;19949;-62
2023/11/30 11:35:29;;;;;;;;;;;0.40;99.90;;;;;;5037179;28;19929;-65
2023/11/30 11:38:00;;;;;;;;;;;0.40;99.90;;;;;;5038958;28;19931;-64
2023/11/30 11:40:27;;;;;;;;;;;0.40;99.90;;;;;;5036213;28;19929;-66
2023/11/30 11:42:54;;;;;;;;;;;0.40;99.90;;;;;;5032198;28;20458;-64
2023/11/30 11:45:21;;;;;;;;;;;0.40;99.90;;;;;;5033827;28;19933;-66
2023/11/30 11:47:48;;;;;;;;;;;0.40;99.90;;;;;;5032441;28;19925;-64
2023/11/30 11:50:15;;;;;;;;;;;0.40;99.90;;;;;;5032142;28;20039;-65
2023/11/30 11:52:41;;;;;;;;;;;0.40;99.90;;;;;;5026121;28;20024;-64
2023/11/30 11:55:10;;;;;;;;;;;0.40;99.90;;;;;;5026812;28;19925;-70
2023/11/30 11:57:41;;;;;;;;;;;0.40;99.90;;;;;;5027534;28;19925;-64
2023/11/30 12:00:14;;;;;;;;;;;0.40;99.90;;;;;;5032593;28;19952;-64
2023/11/30 12:02:41;;;;;;;;;;;0.40;99.90;;;;;;5031288;28;19925;-62
2023/11/30 12:05:08;;;;;;;;;;;0.40;99.90;;;;;;5020850;28;19937;-70
2023/11/30 12:07:47;;;;;;;;;;;0.40;99.90;;;;;;5030510;28;19930;-61
2023/11/30 12:10:33;;;;;;;;;;;0.40;99.90;;;;;;5031050;28;19975;-65
2023/11/30 12:13:00;;;;;;;;;;;0.40;99.90;;;;;;5034359;28;20287;-66
2023/11/30 12:15:27;;;;;;;;;;;0.40;99.90;;;;;;5035408;28;19956;-64
2023/11/30 12:17:54;;;;;;;;;;;0.40;99.90;;;;;;5034669;28;19929;-66
2023/11/30 12:20:21;;;;;;;;;;;0.40;99.90;;;;;;5030142;28;19924;-63
2023/11/30 12:22:48;;;;;;;;;;;0.30;99.90;;;;;;5029783;28;19932;-63
2023/11/30 12:25:16;;;;;;;;;;;0.40;99.90;;;;;;5034323;28;19929;-61
2023/11/30 12:27:43;;;;;;;;;;;0.40;99.90;;;;;;5028687;28;19959;-64
2023/11/30 12:30:10;;;;;;;;;;;0.40;99.90;;;;;;5030784;28;19929;-65
2023/11/30 12:32:37;;;;;;;;;;;0.40;99.90;;;;;;5033887;28;19929;-67
2023/11/30 12:35:06;;;;;;;;;;;0.40;99.90;;;;;;5028716;28;19998;-71
2023/11/30 12:37:33;;;;;;;;;;;0.40;99.90;;;;;;5029746;28;19928;-64
2023/11/30 12:40:00;;;;;;;;;;;0.40;99.90;;;;;;5027798;28;19937;-62
2023/11/30 12:42:27;;;;;;;;;;;0.40;99.90;;;;;;5025555;28;20417;-70
2023/11/30 12:44:54;;;;;;;;;;;0.40;99.90;;;;;;5030806;28;19929;-66
2023/11/30 12:47:21;;;;;;;;;;;0.40;99.90;;;;;;5027748;28;19929;-63
2023/11/30 12:49:48;;;;;;;;;;;0.50;99.90;;;;;;5028892;28;20026;-64
2023/11/30 12:52:15;;;;;;;;;;;0.40;99.90;;;;;;5033663;28;19925;-65
2023/11/30 12:54:43;;;;;;;;;;;0.50;99.90;;;;;;5033417;28;20052;-63
2023/11/30 12:57:11;;;;;;;;;;;0.40;99.90;;;;;;5030555;28;19928;-65
2023/11/30 12:59:38;;;;;;;;;;;0.40;99.90;;;;;;5030176;28;19979;-62
2023/11/30 13:02:06;;;;;;;;;;;0.40;99.90;;;;;;5029001;28;19925;-67
2023/11/30 13:04:33;;;;;;;;;;;0.40;99.90;;;;;;5026804;28;20051;-71
2023/11/30 13:07:00;;;;;;;;;;;0.40;99.90;;;;;;5033562;28;19925;-66
2023/11/30 13:09:32;;;;;;;;;;;0.40;99.90;;;;;;5031008;28;19987;-69
2023/11/30 13:11:59;;;;;;;;;;;0.40;99.90;;;;;;5036180;28;19931;-64
2023/11/30 13:14:26;;;;;;;;;;;0.40;99.90;;;;;;5029793;28;20004;-67
2023/11/30 13:16:53;;;;;;;;;;;0.40;99.90;;;;;;5025061;28;19936;-68
2023/11/30 13:19:20;;;;;;;;;;;0.40;99.90;;;;;;5030998;28;19991;-64
2023/11/30 13:21:51;;;;;;;;;;;0.40;99.90;;;;;;5027140;28;19928;-63
2023/11/30 13:24:19;;;;;;;;;;;0.40;99.90;;;;;;5027852;28;19936;-64
2023/11/30 13:26:47;;;;;;;;;;;0.40;99.90;;;;;;5028916;28;19959;-63
2023/11/30 13:29:14;;;;;;;;;;;0.30;99.90;;;;;;5031791;28;20743;-62
2023/11/30 13:31:41;;;;;;;;;;;0.30;99.90;;;;;;5031104;28;19963;-62
2023/11/30 13:34:08;;;;;;;;;;;0.30;99.90;;;;;;5026992;28;20027;-64
2023/11/30 13:36:34;;;;;;;;;;;0.30;99.90;;;;;;5030567;28;19925;-63
2023/11/30 13:39:04;;;;;;;;;;;0.30;99.90;;;;;;5033708;28;19971;-64
2023/11/30 13:41:31;;;;;;;;;;;0.40;99.90;;;;;;5034215;28;19932;-66
2023/11/30 13:43:58;;;;;;;;;;;0.40;99.90;;;;;;5035167;28;19925;-62
2023/11/30 13:46:25;;;;;;;;;;;0.50;99.90;;;;;;5029620;28;20323;-68
2023/11/30 13:48:52;;;;;;;;;;;0.50;99.90;;;;;;5028766;28;20342;-65
2023/11/30 13:51:19;;;;;;;;;;;0.50;99.90;;;;;;5030444;28;19939;-68
2023/11/30 13:53:46;;;;;;;;;;;0.60;99.90;;;;;;5029323;28;20387;-65
2023/11/30 13:56:14;;;;;;;;;;;0.60;99.90;;;;;;5033011;28;19971;-63
2023/11/30 13:58:41;;;;;;;;;;;0.60;99.90;;;;;;5029240;28;19928;-69
2023/11/30 14:01:09;;;;;;;;;;;0.60;99.90;;;;;;5029608;28;19932;-63
2023/11/30 14:03:36;;;;;;;;;;;0.60;99.90;;;;;;5026819;28;20022;-62
2023/11/30 14:06:04;;;;;;;;;;;0.50;99.90;;;;;;5031354;28;19932;-64
2023/11/30 14:08:31;;;;;;;;;;;0.60;99.90;;;;;;5038436;28;19929;-64
2023/11/30 14:10:57;;;;;;;;;;;0.60;99.90;;;;;;5031702;28;19925;-62
2023/11/30 14:13:24;;;;;;;;;;;0.60;99.90;;;;;;5029758;28;19941;-67
2023/11/30 14:15:51;;;;;;;;;;;0.60;99.90;;;;;;5033633;28;19929;-67
2023/11/30 14:18:18;;;;;;;;;;;0.70;99.90;;;;;;5031589;28;20654;-67
2023/11/30 14:20:48;;;;;;;;;;;0.70;99.90;;;;;;5029249;28;21208;-64